Blairsville, Indiana
Current Conditions -  °F | °C
As of 8:54 PM on Wednesday 26 Nov 2014 (Local Time) from KEVV Reporting Station
Light Snow Light Snow  
Wind Chill: -1°   Ceiling: 3700
Heat Index:   Visibility: 3mi
Dew Point: -1°   Wind: 5mph
Humidity: 89%   Direction: 30°NNE
Pressure: 30.06"   Gusts: NA
Location:  38.0787°N, 87.7717°W
Report Text: KEVV 270254Z 03004KT 3SM -SN BR SCT002 OVC037 01/M01 A3006 RMK AO2 SLP183 P0001 60011 T00111006 55001
Loading
Personal Weather Stations






























Interactive Weather Map New forecast layout! Learn more

10-Day Weather Forecast

Advertisements
Track Severe Weather on mobile